Time;durP1;ratioP1;P1;durP2;ratioP2;P2;SDS_P1;SDS_P2;PMS_P1;PMS_P2;Temp;Humidity;BMP_temperature;BMP_pressure;BME280_temperature;BME280_humidity;BME280_pressure;Samples;Min_cycle;Max_cycle;Signal;HPM_P1;HPM_P2
2023/11/05 00:02:02;;;;;;;6.03;1.90;;;;;;;;;;5102723;27;20457;-81
2023/11/05 00:04:28;;;;;;;6.28;2.00;;;;;;;;;;5119817;27;20987;-81
2023/11/05 00:06:54;;;;;;;5.33;1.50;;;;;;;;;;5138835;27;20178;-81
2023/11/05 00:09:20;;;;;;;5.73;1.57;;;;;;;;;;5119746;28;20444;-81
2023/11/05 00:11:46;;;;;;;10.13;2.20;;;;;;;;;;5138158;27;20430;-81
2023/11/05 00:14:12;;;;;;;6.80;1.87;;;;;;;;;;5138409;27;20417;-81
2023/11/05 00:16:38;;;;;;;11.43;2.13;;;;;;;;;;5102469;27;20501;-81
2023/11/05 00:19:04;;;;;;;9.13;1.97;;;;;;;;;;5120356;27;20499;-81
2023/11/05 00:21:31;;;;;;;4.90;2.35;;;;;;;;;;5089159;28;20469;-81
2023/11/05 00:23:57;;;;;;;6.00;1.77;;;;;;;;;;5118361;28;20176;-81
2023/11/05 00:26:22;;;;;;;9.23;1.70;;;;;;;;;;5099026;28;20188;-81
2023/11/05 00:28:48;;;;;;;3.97;1.83;;;;;;;;;;5082303;28;20421;-81
2023/11/05 00:31:14;;;;;;;4.23;1.83;;;;;;;;;;5082885;28;20940;-81
2023/11/05 00:33:40;;;;;;;7.87;2.67;;;;;;;;;;5081991;28;20425;-81
2023/11/05 00:36:08;;;;;;;5.40;1.57;;;;;;;;;;5099063;28;20412;-81
2023/11/05 00:38:34;;;;;;;4.13;1.88;;;;;;;;;;5098589;28;20417;-82
2023/11/05 00:41:00;;;;;;;4.17;2.40;;;;;;;;;;5116574;28;20229;-81
2023/11/05 00:43:27;;;;;;;7.03;2.50;;;;;;;;;;5099258;28;20449;-81
2023/11/05 00:45:53;;;;;;;4.38;1.60;;;;;;;;;;5117042;28;20410;-81
2023/11/05 00:48:19;;;;;;;6.57;2.07;;;;;;;;;;5098824;28;20176;-81
2023/11/05 00:50:45;;;;;;;8.80;1.50;;;;;;;;;;5081854;28;20417;-81
2023/11/05 00:53:11;;;;;;;9.10;2.03;;;;;;;;;;5082003;28;20974;-81
2023/11/05 00:55:37;;;;;;;5.20;2.50;;;;;;;;;;5081814;28;20445;-82
2023/11/05 00:58:03;;;;;;;3.75;1.63;;;;;;;;;;5098482;28;20417;-81
2023/11/05 01:00:29;;;;;;;5.50;1.80;;;;;;;;;;5097822;28;20245;-81
2023/11/05 01:02:55;;;;;;;4.53;2.00;;;;;;;;;;5099293;28;20418;-81
2023/11/05 01:05:21;;;;;;;6.40;1.90;;;;;;;;;;5117208;28;20755;-82
2023/11/05 01:07:47;;;;;;;4.53;1.80;;;;;;;;;;5081941;28;20664;-80
2023/11/05 01:10:13;;;;;;;5.80;1.90;;;;;;;;;;5099227;28;20206;-80
2023/11/05 01:12:39;;;;;;;7.07;2.60;;;;;;;;;;5098688;28;20746;-81
2023/11/05 01:15:06;;;;;;;5.87;1.70;;;;;;;;;;5098445;28;20410;-81
2023/11/05 01:17:32;;;;;;;3.15;1.33;;;;;;;;;;5117380;28;20458;-81
2023/11/05 01:19:58;;;;;;;3.03;1.60;;;;;;;;;;5098704;28;20236;-80
2023/11/05 01:22:23;;;;;;;4.60;1.40;;;;;;;;;;5080304;28;20188;-81
2023/11/05 01:24:49;;;;;;;3.97;1.50;;;;;;;;;;5082399;28;20421;-81
2023/11/05 01:27:16;;;;;;;5.32;1.75;;;;;;;;;;5081442;28;20414;-81
2023/11/05 01:29:42;;;;;;;6.50;1.15;;;;;;;;;;5065472;28;20184;-81
2023/11/05 01:32:08;;;;;;;6.72;2.13;;;;;;;;;;5100647;28;20526;-81
2023/11/05 01:34:34;;;;;;;4.53;1.60;;;;;;;;;;5065671;28;20545;-82
2023/11/05 01:37:00;;;;;;;6.10;1.58;;;;;;;;;;5082479;28;20175;-80
2023/11/05 01:39:26;;;;;;;5.07;1.50;;;;;;;;;;5065395;28;20183;-81
2023/11/05 01:41:52;;;;;;;10.10;1.73;;;;;;;;;;5099640;28;20461;-80
2023/11/05 01:44:19;;;;;;;3.67;1.70;;;;;;;;;;5065039;28;20746;-81
2023/11/05 01:46:46;;;;;;;4.65;1.27;;;;;;;;;;5066080;28;20184;-81
2023/11/05 01:49:12;;;;;;;3.63;1.35;;;;;;;;;;5082081;28;20267;-81
2023/11/05 01:51:38;;;;;;;2.97;1.42;;;;;;;;;;5081690;28;20591;-81
2023/11/05 01:54:07;;;;;;;7.55;1.83;;;;;;;;;;5082364;28;20184;-81
2023/11/05 01:56:34;;;;;;;6.05;2.60;;;;;;;;;;5099504;28;20164;-81
2023/11/05 01:59:02;;;;;;;7.85;1.48;;;;;;;;;;5099771;28;20168;-81
2023/11/05 02:01:28;;;;;;;2.92;1.45;;;;;;;;;;5099297;28;20224;-81
2023/11/05 02:03:54;;;;;;;2.60;1.00;;;;;;;;;;5100022;28;20186;-81
2023/11/05 02:06:20;;;;;;;2.73;1.23;;;;;;;;;;5081708;28;20410;-81
2023/11/05 02:08:46;;;;;;;3.53;1.17;;;;;;;;;;5080545;28;20959;-81
2023/11/05 02:11:12;;;;;;;7.07;1.45;;;;;;;;;;5101812;28;20944;-81
2023/11/05 02:13:52;;;;;;;4.80;1.30;;;;;;;;;;5091306;27;20189;-81
2023/11/05 02:16:19;;;;;;;6.10;1.80;;;;;;;;;;5140209;27;20624;-81
2023/11/05 02:18:45;;;;;;;4.50;1.50;;;;;;;;;;5121807;27;20182;-81
2023/11/05 02:21:13;;;;;;;4.05;1.20;;;;;;;;;;5121655;27;20206;-81
2023/11/05 02:23:39;;;;;;;4.80;1.67;;;;;;;;;;5140158;27;20234;-81
2023/11/05 02:26:05;;;;;;;2.60;1.27;;;;;;;;;;5121738;27;20338;-81
2023/11/05 02:28:32;;;;;;;2.20;1.27;;;;;;;;;;5121567;27;20428;-81
2023/11/05 02:30:58;;;;;;;2.15;1.15;;;;;;;;;;5121581;27;20428;-81
2023/11/05 02:33:24;;;;;;;1.20;1.10;;;;;;;;;;5121206;27;20183;-81
2023/11/05 02:35:50;;;;;;;4.57;2.10;;;;;;;;;;5121370;27;20178;-81
2023/11/05 02:38:16;;;;;;;3.17;1.10;;;;;;;;;;5114322;28;20696;-80
2023/11/05 02:40:42;;;;;;;4.20;1.05;;;;;;;;;;5084719;28;20496;-80
2023/11/05 02:43:08;;;;;;;2.97;1.50;;;;;;;;;;5101183;28;20650;-80
2023/11/05 02:45:34;;;;;;;3.90;1.10;;;;;;;;;;5101232;28;20179;-80
2023/11/05 02:48:00;;;;;;;3.23;1.33;;;;;;;;;;5084204;28;20409;-80
2023/11/05 02:50:26;;;;;;;4.67;1.30;;;;;;;;;;5118893;28;20410;-80
2023/11/05 02:52:52;;;;;;;3.70;1.13;;;;;;;;;;5119373;28;20447;-80
2023/11/05 02:55:18;;;;;;;4.63;1.10;;;;;;;;;;5118657;28;20443;-80
2023/11/05 02:57:44;;;;;;;2.43;0.80;;;;;;;;;;5118849;28;20936;-80
2023/11/05 03:00:10;;;;;;;4.93;1.00;;;;;;;;;;5100493;28;20510;-80
2023/11/05 03:02:37;;;;;;;3.05;1.13;;;;;;;;;;5101070;28;20445;-81
2023/11/05 03:05:04;;;;;;;1.83;0.98;;;;;;;;;;5099776;28;20190;-80
2023/11/05 03:07:30;;;;;;;4.95;0.95;;;;;;;;;;5084069;28;20543;-80
2023/11/05 03:09:56;;;;;;;3.83;1.08;;;;;;;;;;5100431;28;20229;-81
2023/11/05 03:12:22;;;;;;;2.25;1.10;;;;;;;;;;5100691;28;20183;-80
2023/11/05 03:14:48;;;;;;;2.40;0.83;;;;;;;;;;5118654;28;20811;-80
2023/11/05 03:17:14;;;;;;;1.45;0.90;;;;;;;;;;5084080;28;20792;-81
2023/11/05 03:19:40;;;;;;;1.77;1.30;;;;;;;;;;5100113;28;20187;-80
2023/11/05 03:22:06;;;;;;;1.93;0.70;;;;;;;;;;5100271;28;20477;-80
2023/11/05 03:24:32;;;;;;;5.30;1.00;;;;;;;;;;5083410;28;20422;-81
2023/11/05 03:26:58;;;;;;;4.13;0.95;;;;;;;;;;5101049;28;20433;-80
2023/11/05 03:29:24;;;;;;;3.50;1.00;;;;;;;;;;5083349;28;20191;-81
2023/11/05 03:31:51;;;;;;;1.60;0.60;;;;;;;;;;5099947;28;20425;-80
2023/11/05 03:34:18;;;;;;;1.20;0.80;;;;;;;;;;5100242;28;20183;-80
2023/11/05 03:36:44;;;;;;;1.50;0.93;;;;;;;;;;5099888;28;20534;-81
2023/11/05 03:39:10;;;;;;;2.15;0.80;;;;;;;;;;5100004;28;20175;-80
2023/11/05 03:41:36;;;;;;;1.80;1.00;;;;;;;;;;5093610;28;20208;-80
2023/11/05 03:44:02;;;;;;;2.78;0.82;;;;;;;;;;5079116;28;20406;-80
2023/11/05 03:46:28;;;;;;;2.05;0.80;;;;;;;;;;5096802;28;20180;-80
2023/11/05 03:48:54;;;;;;;1.10;0.70;;;;;;;;;;5093144;28;20263;-81
2023/11/05 03:51:20;;;;;;;4.60;1.17;;;;;;;;;;5062810;28;20635;-80
2023/11/05 03:53:47;;;;;;;3.23;1.00;;;;;;;;;;5088859;28;20865;-80
2023/11/05 03:56:15;;;;;;;1.50;0.63;;;;;;;;;;5096618;28;20418;-80
2023/11/05 03:58:41;;;;;;;0.90;0.60;;;;;;;;;;5095873;28;20184;-80
2023/11/05 04:01:07;;;;;;;1.30;0.60;;;;;;;;;;5095234;28;20593;-81
2023/11/05 04:03:34;;;;;;;2.35;0.70;;;;;;;;;;5097808;28;20413;-81
2023/11/05 04:06:00;;;;;;;1.48;0.82;;;;;;;;;;5096293;28;20170;-80
2023/11/05 04:08:26;;;;;;;1.10;0.77;;;;;;;;;;5096196;28;20628;-80
2023/11/05 04:10:52;;;;;;;1.57;0.67;;;;;;;;;;5079017;28;20437;-80
2023/11/05 04:13:18;;;;;;;3.55;0.80;;;;;;;;;;5095784;28;20464;-81
2023/11/05 04:15:44;;;;;;;2.38;0.73;;;;;;;;;;5095524;28;20267;-81
2023/11/05 04:18:11;;;;;;;1.63;0.60;;;;;;;;;;5079206;28;20180;-80
2023/11/05 04:20:37;;;;;;;3.53;0.63;;;;;;;;;;5095519;28;20575;-81
2023/11/05 04:23:03;;;;;;;8.63;0.70;;;;;;;;;;5096435;28;20179;-81
2023/11/05 04:25:29;;;;;;;1.87;0.60;;;;;;;;;;5078634;28;20463;-80
2023/11/05 04:27:55;;;;;;;2.80;0.70;;;;;;;;;;5095890;28;20790;-81
2023/11/05 04:30:21;;;;;;;0.80;0.50;;;;;;;;;;5078801;28;20530;-80
2023/11/05 04:32:47;;;;;;;1.50;0.60;;;;;;;;;;5095001;28;20418;-80
2023/11/05 04:35:13;;;;;;;1.83;0.80;;;;;;;;;;5078303;28;20413;-81
2023/11/05 04:37:39;;;;;;;0.80;0.57;;;;;;;;;;5078745;28;20207;-81
2023/11/05 04:40:06;;;;;;;3.30;0.80;;;;;;;;;;5096751;28;20229;-80
2023/11/05 04:42:32;;;;;;;0.95;0.60;;;;;;;;;;5095645;28;20402;-80
2023/11/05 04:44:58;;;;;;;1.63;0.50;;;;;;;;;;5095289;28;20595;-81
2023/11/05 04:47:25;;;;;;;0.90;0.55;;;;;;;;;;5095218;28;20233;-81
2023/11/05 04:49:51;;;;;;;1.30;0.60;;;;;;;;;;5078005;28;20578;-81
2023/11/05 04:52:17;;;;;;;1.50;0.55;;;;;;;;;;5095131;28;20202;-81
2023/11/05 04:54:44;;;;;;;1.50;0.63;;;;;;;;;;5095969;28;20592;-81
2023/11/05 04:57:10;;;;;;;0.90;0.60;;;;;;;;;;5094943;28;20264;-80
2023/11/05 04:59:38;;;;;;;1.85;0.60;;;;;;;;;;5094808;28;20240;-80
2023/11/05 05:02:05;;;;;;;1.90;0.60;;;;;;;;;;5095675;28;20751;-80
2023/11/05 05:04:31;;;;;;;0.80;0.50;;;;;;;;;;5094769;28;20191;-80
2023/11/05 05:06:57;;;;;;;1.58;0.57;;;;;;;;;;5077739;28;20176;-80
2023/11/05 05:09:23;;;;;;;1.08;0.50;;;;;;;;;;5078518;28;20179;-81
2023/11/05 05:11:50;;;;;;;3.13;0.60;;;;;;;;;;5096090;28;20184;-81
2023/11/05 05:14:16;;;;;;;1.10;0.60;;;;;;;;;;5116618;28;20492;-81
2023/11/05 05:16:42;;;;;;;0.98;0.50;;;;;;;;;;5116735;28;20186;-81
2023/11/05 05:19:08;;;;;;;1.23;0.60;;;;;;;;;;5081899;28;20254;-81
2023/11/05 05:21:33;;;;;;;0.70;0.50;;;;;;;;;;5081638;28;20203;-81
2023/11/05 05:23:59;;;;;;;3.17;0.50;;;;;;;;;;5081933;28;20486;-80
2023/11/05 05:26:25;;;;;;;1.00;0.50;;;;;;;;;;5098503;28;20488;-81
2023/11/05 05:28:51;;;;;;;1.27;0.70;;;;;;;;;;5116499;28;20394;-81
2023/11/05 05:31:17;;;;;;;0.70;0.40;;;;;;;;;;5081100;28;20789;-82
2023/11/05 05:33:44;;;;;;;0.80;0.50;;;;;;;;;;5097557;28;20174;-81
2023/11/05 05:36:12;;;;;;;0.93;0.63;;;;;;;;;;5116118;28;20651;-82
2023/11/05 05:38:38;;;;;;;1.35;0.80;;;;;;;;;;5098012;28;20252;-83
2023/11/05 05:41:04;;;;;;;0.70;0.50;;;;;;;;;;5097647;28;20214;-83
2023/11/05 05:43:30;;;;;;;1.00;0.50;;;;;;;;;;5097659;28;20180;-83
2023/11/05 05:45:56;;;;;;;2.00;0.90;;;;;;;;;;5080730;28;20526;-84
2023/11/05 05:48:22;;;;;;;1.25;0.60;;;;;;;;;;5097243;28;20529;-84
2023/11/05 05:50:48;;;;;;;0.80;0.60;;;;;;;;;;5077310;28;20595;-84
2023/11/05 05:53:14;;;;;;;1.07;0.47;;;;;;;;;;5098616;28;20184;-84
2023/11/05 05:55:41;;;;;;;0.90;0.60;;;;;;;;;;5062245;28;20421;-85
2023/11/05 05:58:07;;;;;;;0.80;0.60;;;;;;;;;;5111943;28;20770;-86
2023/11/05 06:00:33;;;;;;;4.25;0.60;;;;;;;;;;5097930;28;20239;-84
2023/11/05 06:02:59;;;;;;;2.60;0.60;;;;;;;;;;5115868;28;20202;-83
2023/11/05 06:05:25;;;;;;;1.08;0.60;;;;;;;;;;5097544;28;20413;-84
2023/11/05 06:07:51;;;;;;;2.00;0.65;;;;;;;;;;5116376;28;20173;-86
2023/11/05 06:10:17;;;;;;;1.30;0.63;;;;;;;;;;5084136;28;20179;-85
2023/11/05 06:12:43;;;;;;;1.30;0.80;;;;;;;;;;5083542;28;20417;-85
2023/11/05 06:15:09;;;;;;;1.10;0.60;;;;;;;;;;5105836;28;20790;-85
2023/11/05 06:17:35;;;;;;;1.00;0.70;;;;;;;;;;5107719;28;20412;-85
2023/11/05 06:20:01;;;;;;;1.17;0.75;;;;;;;;;;5117984;28;20191;-86
2023/11/05 06:22:27;;;;;;;3.53;0.70;;;;;;;;;;5118249;28;20179;-86
2023/11/05 06:24:54;;;;;;;1.90;0.77;;;;;;;;;;5117954;28;20167;-87
2023/11/05 06:27:20;;;;;;;1.67;1.00;;;;;;;;;;5083513;28;20407;-86
2023/11/05 06:29:46;;;;;;;2.17;0.70;;;;;;;;;;5099676;28;20678;-87
2023/11/05 06:32:12;;;;;;;1.10;0.60;;;;;;;;;;5082724;28;20421;-86
2023/11/05 06:34:38;;;;;;;1.75;0.60;;;;;;;;;;5099808;28;20182;-86
2023/11/05 06:37:05;;;;;;;2.83;0.90;;;;;;;;;;5117906;28;20167;-86
2023/11/05 06:39:31;;;;;;;2.33;0.70;;;;;;;;;;5099805;28;20766;-86
2023/11/05 06:41:57;;;;;;;2.50;0.75;;;;;;;;;;5117558;28;20289;-87
2023/11/05 06:44:30;;;;;;;3.60;1.15;;;;;;;;;;5082964;28;20179;-88
2023/11/05 06:46:56;;;;;;;6.00;0.82;;;;;;;;;;5099140;28;20190;-87
2023/11/05 06:49:22;;;;;;;0.80;0.80;;;;;;;;;;5082779;28;20179;-87
2023/11/05 06:51:48;;;;;;;1.50;0.80;;;;;;;;;;5117475;28;20406;-88
2023/11/05 06:54:14;;;;;;;1.25;0.68;;;;;;;;;;5081889;28;20187;-88
2023/11/05 06:56:40;;;;;;;1.90;0.60;;;;;;;;;;5079077;28;20172;-90
2023/11/05 06:59:07;;;;;;;1.05;0.60;;;;;;;;;;5096676;28;20172;-89
2023/11/05 07:01:34;;;;;;;1.83;0.70;;;;;;;;;;5078227;28;20700;-89
2023/11/05 07:04:00;;;;;;;1.30;0.50;;;;;;;;;;5078477;28;20176;-88
2023/11/05 07:06:26;;;;;;;3.90;0.80;;;;;;;;;;5078727;28;20172;-89
2023/11/05 07:08:52;;;;;;;2.05;0.65;;;;;;;;;;5078388;28;20418;-90
2023/11/05 07:11:20;;;;;;;1.58;0.90;;;;;;;;;;5096948;28;20529;-88
2023/11/05 07:13:46;;;;;;;2.05;0.70;;;;;;;;;;5078317;28;20242;-89
2023/11/05 07:16:12;;;;;;;4.07;0.80;;;;;;;;;;5078773;28;20195;-89
2023/11/05 07:18:38;;;;;;;2.72;0.80;;;;;;;;;;5061859;28;20501;-90
2023/11/05 07:21:04;;;;;;;2.10;0.90;;;;;;;;;;5063519;28;20299;-90
2023/11/05 07:23:30;;;;;;;1.13;0.77;;;;;;;;;;5097807;28;20402;-90
2023/11/05 07:25:56;;;;;;;1.97;0.80;;;;;;;;;;5098804;28;20183;-91
2023/11/05 07:28:22;;;;;;;1.13;0.70;;;;;;;;;;5117070;28;20411;-91
2023/11/05 07:30:48;;;;;;;2.00;0.70;;;;;;;;;;5116823;28;20312;-90
2023/11/05 07:33:14;;;;;;;3.97;0.88;;;;;;;;;;5099688;28;20182;-90
2023/11/05 07:35:41;;;;;;;5.03;0.80;;;;;;;;;;5116983;28;20175;-90
2023/11/05 07:38:09;;;;;;;5.05;0.80;;;;;;;;;;5116587;28;20406;-89
2023/11/05 07:40:35;;;;;;;2.08;1.02;;;;;;;;;;5116447;28;20352;-90
2023/11/05 07:43:01;;;;;;;0.90;0.60;;;;;;;;;;5098439;28;20586;-90
2023/11/05 07:45:27;;;;;;;2.13;0.90;;;;;;;;;;5098851;28;20413;-90
2023/11/05 07:47:53;;;;;;;1.92;0.70;;;;;;;;;;5100232;28;20175;-91
2023/11/05 07:50:20;;;;;;;0.90;0.80;;;;;;;;;;5081675;28;20248;-90
2023/11/05 07:52:46;;;;;;;1.00;0.70;;;;;;;;;;5116325;28;20443;-90
2023/11/05 07:55:12;;;;;;;1.70;0.90;;;;;;;;;;5098911;28;20202;-90
2023/11/05 07:57:38;;;;;;;2.83;1.13;;;;;;;;;;5099041;28;20580;-91
2023/11/05 08:00:05;;;;;;;1.00;0.73;;;;;;;;;;5116336;28;20234;-91
2023/11/05 08:02:33;;;;;;;1.58;0.65;;;;;;;;;;5100097;28;20336;-92
2023/11/05 08:04:59;;;;;;;1.02;0.73;;;;;;;;;;5117136;28;20171;-92
2023/11/05 08:07:25;;;;;;;1.05;0.90;;;;;;;;;;5105430;28;20243;-92
2023/11/05 08:09:53;;;;;;;1.50;1.00;;;;;;;;;;5098621;28;20171;-92
2023/11/05 08:12:19;;;;;;;1.75;1.00;;;;;;;;;;5098744;28;20187;-92
2023/11/05 08:14:45;;;;;;;1.38;0.90;;;;;;;;;;5099787;28;20221;-92
2023/11/05 08:17:11;;;;;;;1.00;0.90;;;;;;;;;;5099108;28;20300;-92
2023/11/05 08:19:37;;;;;;;0.83;0.70;;;;;;;;;;5098962;28;20644;-91
2023/11/05 08:22:04;;;;;;;1.00;0.80;;;;;;;;;;5099226;28;20453;-91
2023/11/05 08:24:30;;;;;;;1.92;0.85;;;;;;;;;;5083509;28;20259;-94
2023/11/05 08:26:56;;;;;;;1.75;0.70;;;;;;;;;;5102072;28;20183;-94
2023/11/05 08:29:22;;;;;;;1.80;0.60;;;;;;;;;;5100626;28;20171;-94
2023/11/05 08:31:48;;;;;;;1.73;0.82;;;;;;;;;;5116736;28;20409;-92
2023/11/05 08:34:14;;;;;;;3.60;0.70;;;;;;;;;;5098261;28;20202;-92
2023/11/05 08:36:40;;;;;;;1.15;0.82;;;;;;;;;;5098521;28;20182;-92
2023/11/05 08:39:08;;;;;;;2.15;1.15;;;;;;;;;;5098175;28;20635;-92
2023/11/05 08:41:34;;;;;;;4.00;0.90;;;;;;;;;;5093692;28;20196;-92
2023/11/05 08:44:00;;;;;;;1.95;0.90;;;;;;;;;;5083851;28;20188;-92
2023/11/05 08:46:26;;;;;;;1.10;0.90;;;;;;;;;;5078366;28;20176;-92
2023/11/05 08:48:52;;;;;;;1.23;0.70;;;;;;;;;;5077767;28;20608;-91
2023/11/05 08:51:28;;;;;;;0.90;0.70;;;;;;;;;;5077689;28;20508;-91
2023/11/05 08:53:54;;;;;;;1.30;0.80;;;;;;;;;;5076470;28;20474;-89
2023/11/05 08:56:20;;;;;;;1.15;1.02;;;;;;;;;;5094404;28;20172;-89
2023/11/05 08:58:48;;;;;;;2.05;0.75;;;;;;;;;;5059865;28;20214;-88
2023/11/05 09:01:16;;;;;;;1.15;0.80;;;;;;;;;;5093892;28;20224;-88
2023/11/05 09:03:42;;;;;;;1.98;0.60;;;;;;;;;;5076297;28;20183;-87
2023/11/05 09:06:09;;;;;;;5.70;2.55;;;;;;;;;;5102562;28;20178;-88
2023/11/05 09:08:38;;;;;;;2.28;0.93;;;;;;;;;;5116122;28;20227;-93
2023/11/05 09:11:04;;;;;;;6.68;1.95;;;;;;;;;;5095537;28;20183;-93
2023/11/05 09:13:30;;;;;;;6.03;3.05;;;;;;;;;;5097983;28;20761;-93
2023/11/05 09:15:56;;;;;;;1.90;0.90;;;;;;;;;;5099062;28;20179;-93
2023/11/05 09:18:22;;;;;;;3.90;2.00;;;;;;;;;;5099757;28;20508;-92
2023/11/05 09:20:50;;;;;;;2.38;1.58;;;;;;;;;;5092306;28;20739;-95
2023/11/05 09:23:22;;;;;;;2.08;1.10;;;;;;;;;;5119562;28;20179;-94
2023/11/05 09:25:52;;;;;;;4.43;1.05;;;;;;;;;;5105441;28;20186;-94
2023/11/05 09:28:19;;;;;;;1.58;1.23;;;;;;;;;;5101362;28;20196;-94
2023/11/05 09:30:47;;;;;;;1.52;1.00;;;;;;;;;;5099156;28;20183;-94
2023/11/05 09:33:20;;;;;;;2.85;1.10;;;;;;;;;;5100764;28;20179;-94
2023/11/05 09:35:47;;;;;;;1.63;0.85;;;;;;;;;;5110958;28;20167;-92
2023/11/05 09:38:13;;;;;;;4.32;1.60;;;;;;;;;;5100285;28;20183;-93
2023/11/05 09:40:39;;;;;;;2.05;1.10;;;;;;;;;;5102248;28;20258;-93
2023/11/05 09:43:06;;;;;;;1.55;1.10;;;;;;;;;;5107350;28;20244;-91
2023/11/05 09:45:33;;;;;;;4.20;1.20;;;;;;;;;;5113981;28;20175;-93
2023/11/05 09:48:04;;;;;;;1.20;0.80;;;;;;;;;;5104733;28;20183;-92
2023/11/05 09:50:30;;;;;;;3.17;1.25;;;;;;;;;;5103727;28;20542;-93
2023/11/05 09:53:06;;;;;;;1.40;0.90;;;;;;;;;;5102575;28;20696;-93
2023/11/05 09:55:34;;;;;;;2.35;1.05;;;;;;;;;;5101442;28;20186;-92
2023/11/05 10:01:38;;;;;;;;;;;;;;;;;;;;;
2023/11/05 10:04:27;;;;;;;2.78;1.38;;;;;;;;;;5115592;28;20274;-93
2023/11/05 10:06:54;;;;;;;1.17;1.00;;;;;;;;;;5094611;28;20697;-93
2023/11/05 10:09:25;;;;;;;4.57;1.30;;;;;;;;;;5114229;28;20167;-92
2023/11/05 10:12:00;;;;;;;2.42;1.40;;;;;;;;;;5088522;28;20183;-94
2023/11/05 10:14:29;;;;;;;3.67;1.20;;;;;;;;;;5102819;28;20184;-94
2023/11/05 10:16:58;;;;;;;1.10;0.93;;;;;;;;;;5104486;28;20266;-93
2023/11/05 10:19:24;;;;;;;2.03;0.95;;;;;;;;;;5104234;28;20186;-95
2023/11/05 10:21:57;;;;;;;2.40;1.20;;;;;;;;;;5108299;28;20214;-94
2023/11/05 10:24:44;;;;;;;4.90;1.20;;;;;;;;;;5104153;28;20224;-93
2023/11/05 10:27:52;;;;;;;;;;;;;;;;;;;;;
2023/11/05 10:30:30;;;;;;;5.55;1.27;;;;;;;;;;5116595;28;20266;-93
2023/11/05 10:32:56;;;;;;;1.48;0.70;;;;;;;;;;5100729;28;20186;-92
2023/11/05 10:35:37;;;;;;;6.15;1.30;;;;;;;;;;5100935;28;20176;-92
2023/11/05 10:38:03;;;;;;;2.30;1.35;;;;;;;;;;5099066;28;20602;-90
2023/11/05 10:40:32;;;;;;;1.63;1.00;;;;;;;;;;5116306;28;20282;-89
2023/11/05 10:43:04;;;;;;;2.90;1.05;;;;;;;;;;5119146;28;20183;-90
2023/11/05 10:45:31;;;;;;;4.28;1.30;;;;;;;;;;5116892;28;20171;-90
2023/11/05 10:47:57;;;;;;;3.25;1.40;;;;;;;;;;5116553;28;20213;-88
2023/11/05 10:50:30;;;;;;;1.92;1.23;;;;;;;;;;5116513;28;20183;-88
2023/11/05 10:53:00;;;;;;;2.40;1.45;;;;;;;;;;5099786;28;20171;-88
2023/11/05 10:55:36;;;;;;;1.58;0.90;;;;;;;;;;5116155;28;20376;-87
2023/11/05 10:58:08;;;;;;;2.95;1.30;;;;;;;;;;5116438;28;20168;-87
2023/11/05 11:00:34;;;;;;;3.58;1.20;;;;;;;;;;5116106;28;20322;-86
2023/11/05 11:03:01;;;;;;;1.93;1.73;;;;;;;;;;5118076;28;20195;-86
2023/11/05 11:05:42;;;;;;;2.00;1.42;;;;;;;;;;5121040;27;20453;-88
2023/11/05 11:08:09;;;;;;;2.35;1.20;;;;;;;;;;5120855;27;20171;-95
2023/11/05 11:10:39;;;;;;;6.13;1.40;;;;;;;;;;5122379;27;20178;-94
2023/11/05 11:13:12;;;;;;;3.38;1.15;;;;;;;;;;5119012;27;21519;-94
2023/11/05 11:15:39;;;;;;;1.55;1.10;;;;;;;;;;5100573;28;20167;-94
2023/11/05 11:18:05;;;;;;;2.25;1.15;;;;;;;;;;5100754;28;20630;-93
2023/11/05 11:20:34;;;;;;;1.58;1.30;;;;;;;;;;5099674;28;20264;-92
2023/11/05 11:23:03;;;;;;;2.63;1.38;;;;;;;;;;5099805;28;20167;-92
2023/11/05 11:25:35;;;;;;;2.55;1.25;;;;;;;;;;5117443;28;20175;-91
2023/11/05 11:28:01;;;;;;;1.67;1.58;;;;;;;;;;5082787;28;20207;-90
2023/11/05 11:30:27;;;;;;;5.03;1.93;;;;;;;;;;5083164;28;20186;-90
2023/11/05 11:32:53;;;;;;;3.80;1.70;;;;;;;;;;5100415;28;20778;-92
2023/11/05 11:35:21;;;;;;;8.32;2.50;;;;;;;;;;5076398;28;20188;-92
2023/11/05 11:37:47;;;;;;;4.70;1.92;;;;;;;;;;5079395;28;20178;-89
2023/11/05 11:40:21;;;;;;;7.07;2.33;;;;;;;;;;5078271;28;20590;-89
2023/11/05 11:42:47;;;;;;;6.85;2.20;;;;;;;;;;5079363;28;20180;-89
2023/11/05 11:45:13;;;;;;;7.88;1.80;;;;;;;;;;5078864;28;20183;-92
2023/11/05 11:47:41;;;;;;;4.50;1.83;;;;;;;;;;5078910;28;20176;-93
2023/11/05 11:50:07;;;;;;;4.72;2.40;;;;;;;;;;5078762;28;20187;-91
2023/11/05 11:52:49;;;;;;;5.63;2.00;;;;;;;;;;5081506;28;20689;-89
2023/11/05 11:55:16;;;;;;;6.50;2.20;;;;;;;;;;5078682;28;20263;-91
2023/11/05 11:57:42;;;;;;;5.70;2.70;;;;;;;;;;5079753;28;20257;-91
2023/11/05 12:00:11;;;;;;;5.97;2.90;;;;;;;;;;5077244;28;20680;-93
2023/11/05 12:02:39;;;;;;;7.85;3.90;;;;;;;;;;5080312;28;20182;-93
2023/11/05 12:05:06;;;;;;;8.40;5.13;;;;;;;;;;5062502;28;20188;-94
2023/11/05 12:07:45;;;;;;;9.52;4.93;;;;;;;;;;5098616;28;20176;-92
2023/11/05 12:10:31;;;;;;;8.02;4.90;;;;;;;;;;5098766;28;20175;-92
2023/11/05 12:13:19;;;;;;;6.03;3.97;;;;;;;;;;5099180;28;20227;-93
2023/11/05 12:15:58;;;;;;;;;;;;;;;;;;;;;
2023/11/05 12:19:03;;;;;;;5.82;3.55;;;;;;;;;;5116978;28;20246;-93
2023/11/05 12:21:41;;;;;;;4.95;3.20;;;;;;;;;;5117862;28;20563;-94
2023/11/05 12:24:19;;;;;;;6.93;4.00;;;;;;;;;;5117949;28;20220;-95
2023/11/05 12:26:49;;;;;;;10.77;3.35;;;;;;;;;;5099155;28;20179;-96
2023/11/05 12:29:15;;;;;;;8.93;3.42;;;;;;;;;;5100176;28;20171;-91
2023/11/05 12:31:44;;;;;;;5.60;3.10;;;;;;;;;;5097912;28;20240;-91
2023/11/05 12:34:11;;;;;;;7.65;3.00;;;;;;;;;;5097232;28;20201;-89
2023/11/05 12:36:37;;;;;;;11.30;2.70;;;;;;;;;;5085682;28;20188;-87
2023/11/05 12:45:35;;;;;;;;;;;;;;;;;;;;;
2023/11/05 12:48:01;;;;;;;7.18;2.90;;;;;;;;;;5032142;28;20333;-84
2023/11/05 12:50:27;;;;;;;3.67;2.00;;;;;;;;;;5030103;28;20188;-84
2023/11/05 12:52:53;;;;;;;3.80;1.90;;;;;;;;;;5056932;28;20196;-84
2023/11/05 12:55:19;;;;;;;3.30;1.93;;;;;;;;;;5097736;28;20402;-84
2023/11/05 12:57:48;;;;;;;3.40;2.10;;;;;;;;;;5098034;28;20408;-82
2023/11/05 13:00:15;;;;;;;4.85;2.10;;;;;;;;;;5098583;28;20884;-83
2023/11/05 13:02:41;;;;;;;4.80;2.22;;;;;;;;;;5098272;28;20171;-82
2023/11/05 13:05:09;;;;;;;5.63;2.27;;;;;;;;;;5081098;28;20270;-82
2023/11/05 13:07:35;;;;;;;3.63;2.15;;;;;;;;;;5099038;28;20409;-81
2023/11/05 13:10:01;;;;;;;10.65;2.70;;;;;;;;;;5121694;28;20645;-81
2023/11/05 13:12:27;;;;;;;4.13;1.77;;;;;;;;;;5101531;28;20187;-80
2023/11/05 13:14:53;;;;;;;4.20;1.98;;;;;;;;;;5119144;28;20536;-80
2023/11/05 13:17:20;;;;;;;3.03;1.73;;;;;;;;;;5100107;28;20242;-81
2023/11/05 13:19:47;;;;;;;4.72;1.88;;;;;;;;;;5120890;28;20409;-80
2023/11/05 13:22:13;;;;;;;4.22;2.47;;;;;;;;;;5085996;28;20223;-80
2023/11/05 13:24:39;;;;;;;3.78;2.08;;;;;;;;;;5121275;28;20167;-80
2023/11/05 13:27:05;;;;;;;4.20;1.80;;;;;;;;;;5121050;28;20541;-84
2023/11/05 13:29:31;;;;;;;5.17;2.00;;;;;;;;;;5102597;28;20503;-79
2023/11/05 13:31:57;;;;;;;5.50;2.63;;;;;;;;;;5082244;28;20422;-80
2023/11/05 13:34:24;;;;;;;5.83;2.03;;;;;;;;;;5082269;28;20410;-81
2023/11/05 13:36:50;;;;;;;8.95;2.08;;;;;;;;;;5100206;28;20417;-81
2023/11/05 13:39:16;;;;;;;4.73;2.43;;;;;;;;;;5112630;28;20250;-81
2023/11/05 13:41:42;;;;;;;5.35;2.35;;;;;;;;;;5085040;28;20956;-80
2023/11/05 13:44:09;;;;;;;3.28;1.88;;;;;;;;;;5081081;28;20275;-81
2023/11/05 13:46:35;;;;;;;3.65;2.03;;;11.80;99.90;;;;;;5100395;28;20222;-81
2023/11/05 13:49:00;;;;;;;3.20;2.30;;;11.70;99.90;;;;;;5113535;28;20183;-81
2023/11/05 13:51:26;;;;;;;6.67;3.40;;;11.60;99.90;;;;;;5084888;28;20192;-82
2023/11/05 13:53:53;;;;;;;6.53;2.03;;;11.60;99.90;;;;;;5068056;28;20187;-82
2023/11/05 13:56:20;;;;;;;4.55;1.70;;;11.50;99.90;;;;;;5101645;28;20187;-82
2023/11/05 13:58:46;;;;;;;3.47;2.08;;;11.50;99.90;;;;;;5084738;28;20191;-82
2023/11/05 14:01:17;;;;;;;3.33;2.28;;;11.50;99.90;;;;;;5114685;27;20231;-82
2023/11/05 14:03:45;;;;;;;7.00;2.88;;;11.40;99.90;;;;;;5107251;27;20187;-81
2023/11/05 14:06:11;;;;;;;5.57;2.75;;;11.50;99.90;;;;;;5105764;27;20244;-81
2023/11/05 14:08:37;;;;;;;4.50;2.88;;;11.30;99.90;;;;;;5105982;27;20556;-81
2023/11/05 14:11:04;;;;;;;4.30;2.13;;;11.10;99.90;;;;;;5105835;27;20187;-81
2023/11/05 14:13:30;;;;;;;6.97;2.97;;;11.10;99.90;;;;;;5088439;27;20185;-80
2023/11/05 14:15:56;;;;;;;4.03;2.87;;;11.00;99.90;;;;;;5115186;28;20183;-81
2023/11/05 14:18:21;;;;;;;3.07;2.60;;;11.00;99.90;;;;;;5100935;28;20417;-81
2023/11/05 14:20:47;;;;;;;4.20;2.17;;;11.00;99.90;;;;;;5092899;28;20875;-81
2023/11/05 14:23:13;;;;;;;3.17;1.93;;;10.90;99.90;;;;;;5099435;28;20180;-81
2023/11/05 14:25:39;;;;;;;3.10;2.30;;;10.90;99.90;;;;;;5098392;28;20276;-80
2023/11/05 14:28:05;;;;;;;5.70;3.03;;;10.80;99.90;;;;;;5097463;28;20518;-81
2023/11/05 14:30:31;;;;;;;7.20;4.13;;;10.70;99.90;;;;;;5098835;28;20191;-80
2023/11/05 14:32:57;;;;;;;8.40;3.90;;;10.70;99.90;;;;;;5081411;28;20184;-80
2023/11/05 14:35:22;;;;;;;6.83;3.87;;;10.60;99.90;;;;;;5098939;28;20417;-81
2023/11/05 14:37:48;;;;;;;5.67;3.60;;;10.60;99.90;;;;;;5118012;28;20263;-83
2023/11/05 14:40:14;;;;;;;6.93;4.13;;;10.50;99.90;;;;;;5099981;28;20233;-85
2023/11/05 14:42:39;;;;;;;6.80;3.87;;;10.40;99.90;;;;;;5118707;28;20175;-86
2023/11/05 14:45:09;;;;;;;6.00;4.40;;;10.40;99.90;;;;;;5066706;28;20586;-88
2023/11/05 14:47:35;;;;;;;8.00;4.72;;;10.30;99.90;;;;;;5100193;28;20266;-90